createdAt,value
2023-11-23T00:00:11.554Z,10.60
2023-11-23T00:02:42.238Z,9.98
2023-11-23T00:05:09.930Z,7.57
2023-11-23T00:07:37.026Z,8.85
2023-11-23T00:10:06.473Z,10.77
2023-11-23T00:12:33.239Z,9.40
2023-11-23T00:15:01.324Z,9.35
2023-11-23T00:17:30.806Z,9.98
2023-11-23T00:19:57.816Z,6.53
2023-11-23T00:22:24.658Z,9.35
2023-11-23T00:24:51.339Z,11.55
2023-11-23T00:27:18.071Z,10.00
2023-11-23T00:29:46.422Z,9.63
2023-11-23T00:32:13.509Z,10.57
2023-11-23T00:34:40.357Z,10.55
2023-11-23T00:37:09.230Z,12.30
2023-11-23T00:39:36.392Z,11.00
2023-11-23T00:42:04.263Z,10.70
2023-11-23T00:44:32.372Z,10.90
2023-11-23T00:47:00.261Z,10.70
2023-11-23T00:49:28.130Z,11.38
2023-11-23T00:51:54.862Z,9.38
2023-11-23T00:54:22.629Z,10.05
2023-11-23T00:56:49.467Z,11.48
2023-11-23T00:59:16.221Z,10.80
2023-11-23T01:01:43.166Z,10.50
2023-11-23T01:04:10.063Z,10.05
2023-11-23T01:06:36.777Z,10.68
2023-11-23T01:09:03.663Z,10.57
2023-11-23T01:11:30.722Z,10.73
2023-11-23T01:13:57.490Z,10.98
2023-11-23T01:16:24.308Z,9.93
2023-11-23T01:18:51.104Z,11.88
2023-11-23T01:21:17.850Z,11.15
2023-11-23T01:23:44.651Z,13.13
2023-11-23T01:26:12.451Z,11.93
2023-11-23T01:28:39.265Z,11.50
2023-11-23T01:31:06.059Z,12.13
2023-11-23T01:33:32.834Z,11.63
2023-11-23T01:35:59.611Z,10.88
2023-11-23T01:38:27.745Z,12.10
2023-11-23T01:40:57.215Z,12.93
2023-11-23T01:43:24.399Z,12.68
2023-11-23T01:45:51.121Z,13.07
2023-11-23T01:48:20.313Z,11.70
2023-11-23T01:50:49.258Z,13.77
2023-11-23T01:53:16.764Z,13.05
2023-11-23T01:55:43.882Z,13.45
2023-11-23T01:58:12.759Z,13.68
2023-11-23T02:00:39.709Z,13.52
2023-11-23T02:03:06.648Z,13.48
2023-11-23T02:05:33.369Z,13.05
2023-11-23T02:08:00.081Z,13.68
2023-11-23T02:10:26.920Z,13.30
2023-11-23T02:12:54.992Z,12.38
2023-11-23T02:15:23.210Z,13.25
2023-11-23T02:18:08.292Z,13.45
2023-11-23T02:20:35.653Z,13.52
2023-11-23T02:23:02.460Z,12.80
2023-11-23T02:25:29.364Z,13.95
2023-11-23T02:27:56.365Z,13.43
2023-11-23T02:30:23.313Z,13.00
2023-11-23T02:32:51.258Z,13.68
2023-11-23T02:35:21.886Z,13.05
2023-11-23T02:37:48.836Z,13.48
2023-11-23T02:40:16.175Z,13.52
2023-11-23T02:42:45.767Z,12.88
2023-11-23T02:45:13.886Z,14.38
2023-11-23T02:47:40.813Z,14.20
2023-11-23T02:50:07.914Z,13.48
2023-11-23T02:52:34.615Z,14.13
2023-11-23T02:55:01.352Z,15.50
2023-11-23T02:57:28.007Z,15.95
2023-11-23T02:59:54.885Z,13.85
2023-11-23T03:02:21.806Z,13.98
2023-11-23T03:04:48.668Z,14.15
2023-11-23T03:07:15.939Z,14.65
2023-11-23T03:09:42.625Z,14.60
2023-11-23T03:12:09.349Z,15.13
2023-11-23T03:14:36.285Z,14.60
2023-11-23T03:17:04.641Z,15.27
2023-11-23T03:19:32.544Z,16.80
2023-11-23T03:21:59.300Z,14.32
2023-11-23T03:24:26.069Z,14.43
2023-11-23T03:26:52.817Z,14.68
2023-11-23T03:29:19.554Z,13.50
2023-11-23T03:31:46.789Z,15.65
2023-11-23T03:34:13.517Z,14.50
2023-11-23T03:36:40.277Z,10.25
2023-11-23T03:39:08.157Z,16.55
2023-11-23T03:41:37.856Z,16.15
2023-11-23T03:44:04.786Z,15.85
2023-11-23T03:46:31.854Z,15.50
2023-11-23T03:48:58.602Z,8.13
2023-11-23T03:51:25.641Z,15.43
2023-11-23T03:53:52.599Z,17.08
2023-11-23T03:56:19.513Z,11.93
2023-11-23T03:58:46.391Z,13.85
2023-11-23T04:01:13.216Z,16.33
2023-11-23T04:03:46.402Z,17.38
2023-11-23T04:06:13.381Z,18.20
2023-11-23T04:08:41.245Z,19.90
2023-11-23T04:11:10.053Z,18.60
2023-11-23T04:13:36.821Z,18.73
2023-11-23T04:16:03.872Z,20.67
2023-11-23T04:18:30.635Z,19.75
2023-11-23T04:20:57.469Z,19.40
2023-11-23T04:23:24.168Z,18.20
2023-11-23T04:25:51.472Z,18.88
2023-11-23T04:28:18.222Z,19.52
2023-11-23T04:30:45.088Z,10.95
2023-11-23T04:33:12.173Z,17.25
2023-11-23T04:35:38.980Z,20.17
2023-11-23T04:38:05.788Z,18.00
2023-11-23T04:40:32.485Z,17.60
2023-11-23T04:42:59.156Z,20.55
2023-11-23T04:45:26.062Z,11.98
2023-11-23T04:47:53.353Z,21.23
2023-11-23T04:50:22.460Z,20.30
2023-11-23T04:52:49.632Z,20.63
2023-11-23T04:55:16.376Z,17.10
2023-11-23T04:57:43.075Z,22.05
2023-11-23T05:00:13.923Z,19.55
2023-11-23T05:02:44.187Z,21.15
2023-11-23T05:05:14.724Z,18.60
2023-11-23T05:07:41.975Z,18.05
2023-11-23T05:10:09.589Z,16.13
2023-11-23T05:12:37.087Z,19.38
2023-11-23T05:15:07.346Z,19.33
2023-11-23T05:17:34.207Z,16.73
2023-11-23T05:20:01.120Z,19.15
2023-11-23T05:22:28.146Z,17.67
2023-11-23T05:24:54.856Z,18.13
2023-11-23T05:27:22.133Z,17.25
2023-11-23T05:29:50.935Z,18.80
2023-11-23T05:32:18.499Z,19.48
2023-11-23T05:34:45.668Z,18.17
2023-11-23T05:37:12.443Z,16.10
2023-11-23T05:39:43.233Z,16.13
2023-11-23T05:44:38.294Z,16.27
2023-11-23T05:47:05.394Z,17.35
2023-11-23T05:49:32.139Z,19.05
2023-11-23T05:51:58.855Z,17.15
2023-11-23T05:54:25.723Z,18.02
2023-11-23T05:56:52.814Z,18.48
2023-11-23T05:59:19.638Z,14.55
2023-11-23T06:01:46.994Z,17.20
2023-11-23T06:04:14.062Z,14.90
2023-11-23T06:06:40.966Z,16.60
2023-11-23T06:09:10.112Z,19.45
2023-11-23T06:11:36.945Z,14.75
2023-11-23T06:14:04.156Z,16.73
2023-11-23T06:16:30.955Z,17.77
2023-11-23T06:18:58.987Z,17.55
2023-11-23T06:21:25.986Z,15.65
2023-11-23T06:23:52.788Z,17.27
2023-11-23T06:26:21.557Z,19.08
2023-11-23T06:28:48.651Z,17.02
2023-11-23T06:31:15.507Z,17.02
2023-11-23T06:33:42.318Z,15.35
2023-11-23T06:36:09.476Z,17.00
2023-11-23T06:38:36.440Z,12.13
2023-11-23T06:41:04.151Z,9.60
2023-11-23T06:43:31.096Z,17.20
2023-11-23T06:45:58.099Z,16.88
2023-11-23T06:48:24.927Z,11.85
2023-11-23T06:50:51.722Z,16.85
2023-11-23T06:53:19.769Z,17.65
2023-11-23T06:55:46.513Z,9.45
2023-11-23T06:58:13.234Z,17.48
2023-11-23T07:00:40.021Z,12.85
2023-11-23T07:03:06.839Z,16.20
2023-11-23T07:05:33.567Z,16.65
2023-11-23T07:08:00.520Z,15.20
2023-11-23T07:10:28.184Z,17.05
2023-11-23T07:12:55.205Z,16.05
2023-11-23T07:15:26.067Z,12.00
2023-11-23T07:17:53.264Z,16.48
2023-11-23T07:20:20.214Z,16.05
2023-11-23T07:22:46.906Z,15.27
2023-11-23T07:25:15.280Z,14.40
2023-11-23T07:27:42.381Z,15.45
2023-11-23T07:30:09.584Z,15.75
2023-11-23T07:32:37.266Z,14.18
2023-11-23T07:35:05.955Z,14.23
2023-11-23T07:37:34.829Z,12.73
2023-11-23T07:40:06.539Z,14.30
2023-11-23T07:42:33.430Z,13.07
2023-11-23T07:45:00.347Z,15.43
2023-11-23T07:47:27.107Z,13.63
2023-11-23T07:49:55.564Z,13.52
2023-11-23T07:52:23.057Z,16.65
2023-11-23T07:54:49.810Z,8.00
2023-11-23T07:57:16.672Z,12.23
2023-11-23T07:59:47.000Z,14.02
2023-11-23T08:02:13.856Z,13.90
2023-11-23T08:04:40.669Z,12.13
2023-11-23T08:07:07.485Z,13.73
2023-11-23T08:09:34.201Z,12.85
2023-11-23T08:12:01.017Z,13.85
2023-11-23T08:14:27.749Z,11.07
2023-11-23T08:16:56.013Z,12.02
2023-11-23T08:19:26.162Z,10.93
2023-11-23T08:21:53.354Z,11.93
2023-11-23T08:24:20.037Z,12.32
2023-11-23T08:26:46.810Z,12.40
2023-11-23T08:29:13.483Z,13.13
2023-11-23T08:31:42.168Z,11.55
2023-11-23T08:34:09.098Z,11.75
2023-11-23T08:36:36.990Z,12.15
2023-11-23T08:39:04.515Z,12.70
2023-11-23T08:41:31.710Z,8.45
2023-11-23T08:43:59.581Z,9.38
2023-11-23T08:46:26.638Z,11.70
2023-11-23T08:48:53.451Z,11.85
2023-11-23T08:51:20.274Z,12.85
2023-11-23T08:53:47.547Z,11.93
2023-11-23T08:56:15.987Z,12.00
2023-11-23T08:58:43.951Z,11.52
2023-11-23T09:01:11.486Z,12.52
2023-11-23T09:03:38.478Z,12.18
2023-11-23T09:06:05.831Z,11.57
2023-11-23T09:08:33.099Z,12.63
2023-11-23T09:10:59.811Z,10.38
2023-11-23T09:13:27.031Z,11.73
2023-11-23T09:15:57.027Z,6.45
2023-11-23T09:18:24.056Z,8.90
2023-11-23T09:20:55.063Z,11.95
2023-11-23T09:23:22.389Z,11.30
2023-11-23T09:25:49.074Z,11.20
2023-11-23T09:28:15.750Z,11.02
2023-11-23T09:30:42.616Z,9.57
2023-11-23T09:33:10.611Z,10.75
2023-11-23T09:35:43.229Z,10.07
2023-11-23T09:38:10.262Z,10.77
2023-11-23T09:40:37.480Z,8.48
2023-11-23T09:43:05.879Z,8.73
2023-11-23T09:45:33.133Z,9.65
2023-11-23T09:48:02.097Z,6.00
2023-11-23T09:50:33.844Z,8.75
2023-11-23T09:53:04.153Z,9.18
2023-11-23T09:55:31.885Z,8.20
2023-11-23T09:57:58.682Z,10.43
2023-11-23T10:00:26.105Z,10.13
2023-11-23T10:03:02.405Z,9.35
2023-11-23T10:05:29.741Z,7.35
2023-11-23T10:07:56.443Z,8.05
2023-11-23T10:10:23.236Z,9.25
2023-11-23T10:12:50.432Z,9.20
2023-11-23T10:15:17.303Z,8.82
2023-11-23T10:17:44.104Z,9.60
2023-11-23T10:20:13.935Z,9.35
2023-11-23T10:22:45.357Z,9.35
2023-11-23T10:25:35.471Z,9.07
2023-11-23T10:28:04.870Z,6.53
2023-11-23T10:30:33.062Z,8.82
2023-11-23T10:33:01.465Z,8.63
2023-11-23T10:35:37.164Z,8.27
2023-11-23T10:38:04.900Z,7.82
2023-11-23T10:40:33.253Z,9.35
2023-11-23T10:43:04.399Z,6.60
2023-11-23T10:45:36.917Z,8.75
2023-11-23T10:48:04.496Z,8.82
2023-11-23T10:50:32.964Z,9.52
2023-11-23T10:53:02.242Z,9.35
2023-11-23T10:55:28.949Z,8.25
2023-11-23T10:58:05.441Z,8.90
2023-11-23T11:00:32.649Z,8.90
2023-11-23T11:03:01.451Z,7.25
2023-11-23T11:05:31.314Z,8.90
2023-11-23T11:08:09.028Z,9.07
2023-11-23T11:13:11.496Z,5.00
2023-11-23T11:15:48.784Z,5.88
2023-11-23T11:18:21.679Z,9.27
2023-11-23T11:21:08.759Z,9.00
2023-11-23T11:23:45.787Z,5.85
2023-11-23T11:26:20.091Z,10.10
2023-11-23T11:29:01.767Z,8.68
2023-11-23T11:31:42.144Z,8.40
2023-11-23T11:34:26.084Z,6.68
2023-11-23T11:37:05.366Z,9.98
2023-11-23T11:39:36.957Z,7.82
2023-11-23T11:44:34.872Z,5.85
2023-11-23T11:47:02.319Z,6.97
2023-11-23T11:49:31.368Z,9.63
2023-11-23T11:51:58.626Z,9.43
2023-11-23T11:54:28.701Z,9.35
2023-11-23T11:56:55.505Z,9.75
2023-11-23T11:59:24.111Z,8.98
2023-11-23T12:01:51.406Z,9.35
2023-11-23T12:04:20.136Z,9.35
2023-11-23T12:06:51.868Z,9.77
2023-11-23T12:12:06.656Z,10.07
2023-11-23T12:14:37.004Z,8.32
2023-11-23T12:17:14.076Z,6.72
2023-11-23T12:19:55.160Z,8.70
2023-11-23T12:22:24.152Z,9.35
2023-11-23T12:24:52.109Z,6.05
2023-11-23T12:27:19.687Z,7.93
2023-11-23T12:29:46.513Z,9.55
2023-11-23T12:32:13.301Z,6.55
2023-11-23T12:34:40.029Z,7.95
2023-11-23T12:37:07.039Z,7.60
2023-11-23T12:39:33.718Z,6.68
2023-11-23T12:42:00.539Z,9.38
2023-11-23T12:44:27.279Z,6.18
2023-11-23T12:46:54.141Z,9.75
2023-11-23T12:49:21.069Z,9.40
2023-11-23T12:51:48.241Z,6.03
2023-11-23T12:54:15.723Z,9.10
2023-11-23T12:56:42.827Z,9.15
2023-11-23T12:59:09.774Z,8.52
2023-11-23T13:01:38.043Z,8.18
2023-11-23T13:04:07.859Z,8.13
2023-11-23T13:06:35.754Z,8.93
2023-11-23T13:09:04.654Z,5.20
2023-11-23T13:11:31.368Z,7.78
2023-11-23T13:13:58.051Z,5.07
2023-11-23T13:16:25.318Z,8.20
2023-11-23T13:19:06.366Z,7.82
2023-11-23T13:21:39.586Z,7.88
2023-11-23T13:24:10.561Z,6.85
2023-11-23T13:26:37.604Z,7.22
2023-11-23T13:29:04.297Z,7.13
2023-11-23T13:31:31.078Z,6.60
2023-11-23T13:33:57.896Z,5.88
2023-11-23T13:36:24.938Z,7.18
2023-11-23T13:38:52.317Z,7.07
2023-11-23T13:41:19.610Z,7.32
2023-11-23T13:43:46.884Z,6.18
2023-11-23T13:46:15.460Z,7.20
2023-11-23T13:48:44.333Z,5.95
2023-11-23T13:51:11.416Z,7.05
2023-11-23T13:53:39.388Z,6.68
2023-11-23T13:56:10.778Z,4.50
2023-11-23T13:58:37.826Z,7.45
2023-11-23T14:01:04.612Z,6.07
2023-11-23T14:03:33.178Z,5.40
2023-11-23T14:06:00.222Z,5.80
2023-11-23T14:08:26.965Z,6.07
2023-11-23T14:10:54.209Z,6.15
2023-11-23T14:13:20.951Z,5.18
2023-11-23T14:15:47.802Z,5.03
2023-11-23T14:18:14.783Z,5.20
2023-11-23T14:20:44.466Z,4.18
2023-11-23T14:23:13.161Z,3.35
2023-11-23T14:25:42.019Z,5.30
2023-11-23T14:28:16.054Z,4.78
2023-11-23T14:30:43.664Z,5.20
2023-11-23T14:33:14.681Z,2.95
2023-11-23T14:35:44.649Z,4.90
2023-11-23T14:38:16.257Z,4.60
2023-11-23T14:40:47.660Z,3.03
2023-11-23T14:43:16.921Z,4.25
2023-11-23T14:45:45.225Z,4.13
2023-11-23T14:48:12.175Z,3.92
2023-11-23T14:50:39.138Z,3.88
2023-11-23T14:53:05.871Z,4.13
2023-11-23T14:55:32.780Z,2.63
2023-11-23T14:57:59.480Z,4.47
2023-11-23T15:00:26.710Z,3.40
2023-11-23T15:02:53.812Z,3.90
2023-11-23T15:05:20.697Z,3.63
2023-11-23T15:07:47.834Z,3.67
2023-11-23T15:10:20.019Z,3.30
2023-11-23T15:12:54.185Z,3.92
2023-11-23T15:15:21.567Z,3.30
2023-11-23T15:17:50.107Z,3.80
2023-11-23T15:20:17.217Z,3.22
2023-11-23T15:22:44.027Z,2.67
2023-11-23T15:25:11.698Z,3.38
2023-11-23T15:27:40.964Z,3.67
2023-11-23T15:30:08.645Z,3.50
2023-11-23T15:32:38.639Z,3.15
2023-11-23T15:35:08.291Z,3.40
2023-11-23T15:37:35.249Z,3.22
2023-11-23T15:40:01.997Z,3.47
2023-11-23T15:42:28.813Z,3.30
2023-11-23T15:44:55.537Z,3.17
2023-11-23T15:47:22.297Z,3.75
2023-11-23T15:49:48.995Z,3.08
2023-11-23T15:52:16.088Z,3.80
2023-11-23T15:54:42.818Z,2.88
2023-11-23T15:57:10.076Z,2.95
2023-11-23T15:59:37.636Z,2.80
2023-11-23T16:02:07.606Z,3.58
2023-11-23T16:04:34.436Z,3.38
2023-11-23T16:07:03.610Z,4.20
2023-11-23T16:09:30.714Z,4.28
2023-11-23T16:11:58.899Z,2.95
2023-11-23T16:14:25.613Z,3.75
2023-11-23T16:16:52.291Z,2.20
2023-11-23T16:19:20.852Z,3.35
2023-11-23T16:21:47.555Z,3.17
2023-11-23T16:24:15.046Z,3.60
2023-11-23T16:26:43.130Z,3.30
2023-11-23T16:29:12.233Z,3.08
2023-11-23T16:31:43.319Z,3.10
2023-11-23T16:34:11.037Z,3.08
2023-11-23T16:36:40.371Z,2.92
2023-11-23T16:39:10.799Z,3.53
2023-11-23T16:41:37.614Z,3.30
2023-11-23T16:44:04.533Z,3.17
2023-11-23T16:46:31.291Z,3.13
2023-11-23T16:48:58.099Z,3.60
2023-11-23T16:51:26.305Z,4.53
2023-11-23T16:53:55.367Z,3.83
2023-11-23T16:56:22.445Z,3.67
2023-11-23T16:58:49.210Z,4.45
2023-11-23T17:01:16.196Z,2.70
2023-11-23T17:03:43.121Z,4.20
2023-11-23T17:06:10.089Z,4.28
2023-11-23T17:08:38.780Z,3.70
2023-11-23T17:11:05.565Z,4.50
2023-11-23T17:13:34.364Z,4.25
2023-11-23T17:16:01.708Z,4.32
2023-11-23T17:18:28.482Z,2.45
2023-11-23T17:20:55.638Z,4.97
2023-11-23T17:23:22.360Z,5.03
2023-11-23T17:25:49.241Z,4.82
2023-11-23T17:28:21.295Z,3.42
2023-11-23T17:30:55.964Z,5.28
2023-11-23T17:33:24.312Z,5.75
2023-11-23T17:35:52.896Z,3.85
2023-11-23T17:38:19.865Z,5.55
2023-11-23T17:40:47.139Z,5.28
2023-11-23T17:43:14.094Z,4.45
2023-11-23T17:45:42.816Z,5.05
2023-11-23T17:48:09.778Z,6.53
2023-11-23T17:50:38.958Z,5.55
2023-11-23T17:53:07.429Z,5.47
2023-11-23T17:55:34.522Z,5.70
2023-11-23T17:58:01.325Z,3.88
2023-11-23T18:00:28.964Z,5.88
2023-11-23T18:02:56.239Z,5.90
2023-11-23T18:05:23.174Z,5.97
2023-11-23T18:07:49.942Z,6.00
2023-11-23T18:10:17.136Z,4.95
2023-11-23T18:12:44.157Z,7.50
2023-11-23T18:15:12.064Z,7.35
2023-11-23T18:17:39.383Z,7.53
2023-11-23T18:20:06.611Z,4.35
2023-11-23T18:22:33.378Z,6.05
2023-11-23T18:25:01.323Z,5.28
2023-11-23T18:27:28.073Z,5.50
2023-11-23T18:29:54.855Z,4.53
2023-11-23T18:32:21.607Z,7.15
2023-11-23T18:34:48.472Z,6.38
2023-11-23T18:37:15.272Z,6.13
2023-11-23T18:39:42.426Z,4.93
2023-11-23T18:42:12.221Z,6.38
2023-11-23T18:44:42.897Z,5.93
2023-11-23T18:47:09.678Z,5.80
2023-11-23T18:49:36.410Z,6.30
2023-11-23T18:52:04.005Z,5.35
2023-11-23T18:54:31.120Z,4.90
2023-11-23T18:56:58.195Z,6.07
2023-11-23T18:59:25.559Z,7.28
2023-11-23T19:01:55.086Z,4.22
2023-11-23T19:04:23.110Z,7.82
2023-11-23T19:06:52.487Z,7.30
2023-11-23T19:09:22.749Z,6.90
2023-11-23T19:11:50.498Z,7.28
2023-11-23T19:14:17.334Z,4.65
2023-11-23T19:16:44.191Z,7.55
2023-11-23T19:19:12.430Z,6.90
2023-11-23T19:21:39.599Z,7.72
2023-11-23T19:24:08.631Z,3.90
2023-11-23T19:26:35.672Z,7.40
2023-11-23T19:29:03.742Z,7.10
2023-11-23T19:31:32.786Z,6.65
2023-11-23T19:34:00.009Z,4.47
2023-11-23T19:36:28.359Z,4.43
2023-11-23T19:38:55.353Z,6.53
2023-11-23T19:41:23.126Z,7.30
2023-11-23T19:43:50.148Z,7.13
2023-11-23T19:46:21.175Z,5.40
2023-11-23T19:48:48.187Z,5.75
2023-11-23T19:51:21.451Z,4.93
2023-11-23T19:53:54.960Z,6.30
2023-11-23T19:56:24.998Z,5.63
2023-11-23T19:58:52.990Z,6.38
2023-11-23T20:01:19.905Z,6.82
2023-11-23T20:03:46.758Z,7.03
2023-11-23T20:06:13.589Z,7.05
2023-11-23T20:08:41.997Z,6.97
2023-11-23T20:11:08.969Z,3.13
2023-11-23T20:13:35.650Z,6.50
2023-11-23T20:16:03.531Z,4.13
2023-11-23T20:18:30.428Z,4.25
2023-11-23T20:20:57.510Z,5.82
2023-11-23T20:23:24.262Z,5.22
2023-11-23T20:25:50.976Z,5.32
2023-11-23T20:28:17.658Z,3.75
2023-11-23T20:30:44.854Z,5.03
2023-11-23T20:33:11.649Z,4.78
2023-11-23T20:35:39.266Z,5.20
2023-11-23T20:38:05.965Z,3.78
2023-11-23T20:40:32.736Z,1.67
2023-11-23T20:42:59.613Z,1.55
2023-11-23T20:45:26.353Z,1.20
2023-11-23T20:47:53.189Z,0.70
2023-11-23T20:50:20.370Z,0.80
2023-11-23T20:52:47.111Z,0.90
2023-11-23T20:55:16.583Z,1.38
2023-11-23T20:57:45.183Z,1.00
2023-11-23T21:00:13.372Z,1.00
2023-11-23T21:02:40.618Z,1.42
2023-11-23T21:05:08.855Z,1.30
2023-11-23T21:07:36.197Z,1.27
2023-11-23T21:10:05.290Z,1.10
2023-11-23T21:12:32.211Z,1.45
2023-11-23T21:14:59.006Z,0.80
2023-11-23T21:17:25.875Z,1.88
2023-11-23T21:19:53.566Z,2.42
2023-11-23T21:22:20.254Z,1.17
2023-11-23T21:24:46.992Z,1.42
2023-11-23T21:27:13.850Z,2.60
2023-11-23T21:29:40.615Z,1.60
2023-11-23T21:32:09.033Z,1.70
2023-11-23T21:34:35.786Z,1.42
2023-11-23T21:37:03.430Z,1.77
2023-11-23T21:39:30.194Z,2.40
2023-11-23T21:41:56.901Z,1.63
2023-11-23T21:44:23.581Z,1.35
2023-11-23T21:46:50.407Z,2.10
2023-11-23T21:49:17.175Z,1.20
2023-11-23T21:51:46.373Z,1.67
2023-11-23T21:54:13.149Z,1.80
2023-11-23T21:56:40.114Z,2.22
2023-11-23T21:59:06.830Z,2.20
2023-11-23T22:01:34.836Z,1.23
2023-11-23T22:04:01.732Z,1.42
2023-11-23T22:06:28.539Z,1.90
2023-11-23T22:08:55.256Z,1.75
2023-11-23T22:11:21.972Z,1.95
2023-11-23T22:13:48.729Z,1.77
2023-11-23T22:16:15.581Z,2.70
2023-11-23T22:18:42.682Z,1.70
2023-11-23T22:21:09.817Z,1.80
2023-11-23T22:23:36.815Z,2.08
2023-11-23T22:26:03.926Z,1.85
2023-11-23T22:28:30.922Z,1.98
2023-11-23T22:30:59.410Z,1.85
2023-11-23T22:33:27.243Z,1.50
2023-11-23T22:35:54.204Z,1.17
2023-11-23T22:38:21.232Z,1.85
2023-11-23T22:40:48.235Z,1.30
2023-11-23T22:43:15.270Z,1.98
2023-11-23T22:45:42.265Z,2.10
2023-11-23T22:48:09.177Z,1.90
2023-11-23T22:50:35.991Z,1.73
2023-11-23T22:53:02.700Z,2.33
2023-11-23T22:55:29.437Z,3.03
2023-11-23T22:57:56.232Z,1.55
2023-11-23T23:00:26.395Z,1.58
2023-11-23T23:02:53.854Z,2.20
2023-11-23T23:05:21.096Z,3.17
2023-11-23T23:07:48.066Z,1.63
2023-11-23T23:10:15.218Z,2.95
2023-11-23T23:12:41.993Z,1.17
2023-11-23T23:15:09.459Z,1.00
2023-11-23T23:17:36.312Z,1.13
2023-11-23T23:20:06.706Z,0.80
2023-11-23T23:22:33.787Z,0.82
2023-11-23T23:25:00.589Z,1.10
2023-11-23T23:27:27.444Z,0.75
2023-11-23T23:29:54.223Z,0.90
2023-11-23T23:32:24.371Z,0.88
2023-11-23T23:34:52.067Z,1.42
2023-11-23T23:37:18.880Z,1.10
2023-11-23T23:39:45.677Z,1.02
2023-11-23T23:42:12.438Z,0.80
2023-11-23T23:44:39.173Z,1.33
2023-11-23T23:47:08.363Z,1.08
2023-11-23T23:49:37.221Z,0.60
2023-11-23T23:52:04.123Z,0.90
2023-11-23T23:54:30.866Z,0.98
2023-11-23T23:56:58.653Z,0.88
2023-11-23T23:59:25.571Z,0.70
